createdAt,value
2023-03-10T04:17:47.647Z,0.93
2023-03-10T04:20:18.181Z,0.47
2023-03-10T04:22:46.206Z,1.25
2023-03-10T04:25:15.082Z,1.08
2023-03-10T04:27:43.215Z,0.88
2023-03-10T04:30:13.984Z,0.50
2023-03-10T04:32:42.136Z,1.17
2023-03-10T04:35:12.789Z,2.28
2023-03-10T04:37:42.465Z,1.55
2023-03-10T04:40:14.381Z,0.60
2023-03-10T04:42:43.268Z,0.63
2023-03-10T04:45:12.725Z,0.68
2023-03-10T04:47:41.074Z,0.60
2023-03-10T04:50:10.755Z,1.65
2023-03-10T04:52:39.276Z,0.73
2023-03-10T04:55:09.946Z,1.33
2023-03-10T04:57:37.974Z,1.42
2023-03-10T05:00:08.219Z,6.90
2023-03-10T05:02:37.644Z,2.75
2023-03-10T05:05:06.862Z,3.97
2023-03-10T05:07:34.945Z,4.95
2023-03-10T05:10:03.062Z,3.33
2023-03-10T05:12:32.516Z,3.85
2023-03-10T05:15:00.571Z,4.50
2023-03-10T05:17:29.491Z,5.68
2023-03-10T05:19:58.328Z,6.63
2023-03-10T05:22:26.491Z,8.18
2023-03-10T05:24:54.613Z,10.27
2023-03-10T05:27:22.709Z,7.18
2023-03-10T05:29:52.159Z,4.03
2023-03-10T05:32:20.313Z,5.88
2023-03-10T05:34:48.358Z,8.13
2023-03-10T05:37:16.410Z,8.38
2023-03-10T05:39:44.866Z,5.80
2023-03-10T05:42:13.424Z,7.43
2023-03-10T05:44:41.605Z,5.03
2023-03-10T05:47:11.169Z,3.95
2023-03-10T05:49:39.202Z,5.30
2023-03-10T05:52:07.976Z,4.78
2023-03-10T05:54:36.044Z,6.40
2023-03-10T05:57:04.175Z,5.22
2023-03-10T05:59:32.265Z,5.43
2023-03-10T06:02:00.343Z,7.75
2023-03-10T06:04:32.375Z,5.32
2023-03-10T06:07:01.598Z,11.05
2023-03-10T06:09:30.383Z,5.22
2023-03-10T06:11:58.568Z,5.47
2023-03-10T06:14:27.262Z,9.45
2023-03-10T06:16:55.532Z,6.95
2023-03-10T06:19:23.876Z,6.80
2023-03-10T06:21:53.455Z,8.02
2023-03-10T06:24:21.515Z,8.65
2023-03-10T06:26:50.178Z,5.40
2023-03-10T06:29:18.248Z,11.05
2023-03-10T06:31:46.359Z,6.78
2023-03-10T06:34:14.449Z,12.15
2023-03-10T06:36:42.981Z,8.55
2023-03-10T06:39:12.444Z,7.32
2023-03-10T06:41:40.546Z,8.85
2023-03-10T06:44:08.662Z,8.25
2023-03-10T06:46:36.715Z,10.27
2023-03-10T06:49:05.170Z,7.53
2023-03-10T06:51:33.311Z,10.88
2023-03-10T06:54:01.642Z,11.93
2023-03-10T06:56:31.156Z,16.10
2023-03-10T06:58:59.259Z,7.13
2023-03-10T07:01:29.896Z,8.70
2023-03-10T07:03:58.493Z,11.93
2023-03-10T07:06:27.006Z,14.85
2023-03-10T07:08:55.915Z,9.18
2023-03-10T07:11:24.975Z,7.05
2023-03-10T07:13:55.075Z,7.72
2023-03-10T07:16:23.834Z,5.85
2023-03-10T07:18:51.977Z,10.52
2023-03-10T07:21:21.822Z,8.38
2023-03-10T07:23:50.381Z,11.13
2023-03-10T07:26:19.601Z,10.35
2023-03-10T07:28:48.040Z,7.53
2023-03-10T07:31:17.796Z,7.25
2023-03-10T07:33:46.034Z,10.43
2023-03-10T07:36:16.140Z,7.82
2023-03-10T07:38:44.412Z,9.05
2023-03-10T07:41:16.098Z,6.18
2023-03-10T07:43:44.162Z,11.18
2023-03-10T07:46:14.133Z,9.10
2023-03-10T07:48:43.938Z,6.75
2023-03-10T07:51:12.538Z,4.05
2023-03-10T07:53:40.836Z,6.55
2023-03-10T07:56:10.437Z,5.93
2023-03-10T07:58:39.571Z,6.10
2023-03-10T08:01:08.457Z,5.00
2023-03-10T08:03:37.093Z,7.63
2023-03-10T08:06:07.111Z,5.63
2023-03-10T08:08:35.637Z,4.75
2023-03-10T08:11:04.875Z,4.60
2023-03-10T08:13:33.867Z,4.55
2023-03-10T08:16:02.608Z,7.93
2023-03-10T08:18:31.711Z,10.48
2023-03-10T08:21:00.339Z,7.15
2023-03-10T08:23:29.894Z,6.32
2023-03-10T08:26:01.710Z,3.30
2023-03-10T08:28:30.752Z,5.15
2023-03-10T08:31:04.646Z,4.32
2023-03-10T08:33:33.774Z,2.88
2023-03-10T08:36:07.178Z,6.40
2023-03-10T08:38:37.180Z,3.35
2023-03-10T08:41:13.237Z,2.20
2023-03-10T08:43:41.672Z,7.55
2023-03-10T08:46:10.651Z,2.97
2023-03-10T08:48:41.555Z,2.67
2023-03-10T08:51:13.142Z,4.35
2023-03-10T08:53:46.720Z,5.18
2023-03-10T08:56:15.197Z,5.07
2023-03-10T08:58:43.705Z,2.55
2023-03-10T09:01:12.159Z,4.50
2023-03-10T09:03:41.310Z,6.13
2023-03-10T09:06:10.029Z,11.77
2023-03-10T09:08:39.728Z,5.20
2023-03-10T09:11:09.833Z,4.65
2023-03-10T09:13:37.993Z,6.85
2023-03-10T09:16:07.446Z,9.75
2023-03-10T09:18:37.011Z,8.65
2023-03-10T09:21:05.260Z,6.05
2023-03-10T09:23:33.565Z,8.32
2023-03-10T09:26:01.862Z,5.47
2023-03-10T09:28:31.625Z,8.57
2023-03-10T09:30:59.780Z,9.05
2023-03-10T09:33:27.800Z,9.15
2023-03-10T09:36:06.524Z,10.63
2023-03-10T09:38:35.352Z,6.65
2023-03-10T09:41:09.871Z,9.23
2023-03-10T09:43:42.297Z,5.18
2023-03-10T09:46:16.558Z,11.23
2023-03-10T09:48:50.039Z,4.57
2023-03-10T09:51:22.202Z,8.88
2023-03-10T09:54:23.218Z,10.73
2023-03-10T09:56:51.876Z,5.72
2023-03-10T09:59:26.362Z,5.22
2023-03-10T10:01:55.636Z,12.57
2023-03-10T10:04:26.739Z,10.48
2023-03-10T10:06:55.898Z,13.30
2023-03-10T10:09:29.023Z,5.95
2023-03-10T10:11:57.648Z,10.95
2023-03-10T10:14:31.284Z,13.75
2023-03-10T10:17:06.196Z,8.30
2023-03-10T10:19:36.962Z,7.18
2023-03-10T10:22:10.433Z,7.00
2023-03-10T10:24:38.647Z,7.07
2023-03-10T10:30:32.658Z,8.63
2023-03-10T10:33:01.967Z,14.60
2023-03-10T10:35:31.644Z,10.73
2023-03-10T10:38:01.425Z,10.88
2023-03-10T10:40:33.390Z,11.32
2023-03-10T10:43:05.714Z,8.13
2023-03-10T10:45:37.329Z,12.23
2023-03-10T10:48:06.136Z,11.05
2023-03-10T10:50:35.687Z,10.90
2023-03-10T10:53:21.161Z,11.60
2023-03-10T10:56:00.535Z,10.05
2023-03-10T10:58:31.995Z,13.27
2023-03-10T11:01:03.201Z,8.35
2023-03-10T11:03:33.729Z,9.45
2023-03-10T11:06:03.060Z,10.60
2023-03-10T11:08:37.693Z,6.90
2023-03-10T11:11:17.386Z,10.73
2023-03-10T11:13:58.390Z,11.60
2023-03-10T11:16:32.009Z,11.57
2023-03-10T11:19:05.841Z,9.88
2023-03-10T11:21:37.568Z,8.25
2023-03-10T11:24:14.920Z,8.10
2023-03-10T11:26:50.718Z,5.93
2023-03-10T11:29:32.167Z,13.60
2023-03-10T11:32:09.954Z,5.70
2023-03-10T11:34:41.782Z,8.45
2023-03-10T11:37:15.670Z,8.57
2023-03-10T11:39:49.288Z,7.30
2023-03-10T11:42:26.201Z,5.90
2023-03-10T11:45:03.109Z,7.32
2023-03-10T11:47:48.680Z,6.15
2023-03-10T11:50:22.932Z,6.90
2023-03-10T11:53:00.511Z,7.90
2023-03-10T11:55:29.006Z,7.00
2023-03-10T11:57:59.928Z,6.80
2023-03-10T12:00:31.933Z,3.92
2023-03-10T12:03:10.816Z,3.08
2023-03-10T12:05:45.171Z,6.40
2023-03-10T12:08:14.303Z,3.25
2023-03-10T12:10:42.966Z,7.30
2023-03-10T12:13:20.074Z,8.55
2023-03-10T12:15:48.633Z,3.28
2023-03-10T12:18:18.245Z,4.05
2023-03-10T12:20:46.328Z,3.70
2023-03-10T12:23:41.120Z,4.75
2023-03-10T12:26:09.406Z,6.40
2023-03-10T12:28:37.458Z,5.25
2023-03-10T12:31:07.584Z,4.97
2023-03-10T12:33:45.529Z,3.67
2023-03-10T12:36:16.090Z,4.28
2023-03-10T12:38:49.219Z,6.03
2023-03-10T12:41:40.367Z,4.93
2023-03-10T12:44:29.103Z,2.97
2023-03-10T12:47:00.383Z,5.80
2023-03-10T12:49:34.543Z,5.05
2023-03-10T12:52:16.858Z,4.35
2023-03-10T12:55:02.991Z,5.18
2023-03-10T12:57:34.598Z,2.42
2023-03-10T13:00:06.669Z,5.72
2023-03-10T13:02:38.802Z,7.50
2023-03-10T13:05:18.835Z,2.22
2023-03-10T13:07:47.872Z,5.07
2023-03-10T13:10:19.954Z,5.75
2023-03-10T13:12:49.559Z,4.28
2023-03-10T13:15:25.416Z,5.65
2023-03-10T13:17:55.264Z,3.17
2023-03-10T13:20:24.932Z,5.85
2023-03-10T13:22:57.577Z,6.63
2023-03-10T13:25:27.348Z,6.95
2023-03-10T13:27:57.465Z,3.30
2023-03-10T13:30:27.864Z,4.57
2023-03-10T13:32:57.460Z,5.60
2023-03-10T13:35:31.582Z,3.60
2023-03-10T13:38:12.360Z,5.70
2023-03-10T13:40:42.713Z,1.63
2023-03-10T13:43:28.912Z,5.25
2023-03-10T13:45:57.544Z,2.35
2023-03-10T13:48:26.212Z,3.40
2023-03-10T13:51:08.036Z,3.42
2023-03-10T13:53:36.381Z,5.20
2023-03-10T13:56:16.606Z,4.55
2023-03-10T13:58:45.119Z,7.00
2023-03-10T14:01:18.715Z,4.43
2023-03-10T14:03:51.799Z,1.92
2023-03-10T14:08:49.861Z,3.00
2023-03-10T14:11:26.267Z,4.00
2023-03-10T14:13:54.291Z,2.55
2023-03-10T14:16:23.069Z,4.32
2023-03-10T14:18:51.106Z,2.35
2023-03-10T14:21:32.121Z,2.13
2023-03-10T14:24:04.725Z,1.88
2023-03-10T14:26:33.042Z,3.45
2023-03-10T14:29:02.785Z,2.25
2023-03-10T14:31:30.953Z,1.23
2023-03-10T14:33:59.147Z,1.98
2023-03-10T14:36:28.831Z,3.72
2023-03-10T14:38:57.006Z,4.20
2023-03-10T14:41:26.697Z,3.92
2023-03-10T14:43:55.063Z,4.18
2023-03-10T14:46:23.677Z,1.70
2023-03-10T14:48:51.917Z,3.42
2023-03-10T14:51:34.693Z,2.28
2023-03-10T14:54:06.986Z,1.55
2023-03-10T14:56:35.287Z,2.05
2023-03-10T14:59:03.512Z,2.05
2023-03-10T15:01:32.184Z,1.95
2023-03-10T15:04:00.405Z,2.50
2023-03-10T15:06:28.661Z,11.98
2023-03-10T15:08:56.873Z,2.03
2023-03-10T15:11:37.066Z,0.73
2023-03-10T15:14:06.092Z,0.60
2023-03-10T15:16:34.264Z,0.55
2023-03-10T15:19:02.449Z,1.77
2023-03-10T15:21:30.519Z,1.70
2023-03-10T15:23:58.552Z,0.85
2023-03-10T15:26:28.256Z,0.70
2023-03-10T15:28:56.272Z,2.88
2023-03-10T15:31:24.338Z,6.32
2023-03-10T15:33:52.413Z,1.42
2023-03-10T15:36:20.503Z,1.48
2023-03-10T15:38:48.709Z,2.92
2023-03-10T15:41:17.282Z,2.08
2023-03-10T15:43:46.812Z,1.52
2023-03-10T15:46:14.947Z,1.05
2023-03-10T15:48:43.170Z,3.28
2023-03-10T15:51:14.282Z,1.30
2023-03-10T15:53:42.287Z,0.75
2023-03-10T15:56:11.550Z,0.65
2023-03-10T15:58:39.692Z,0.60
2023-03-10T16:01:10.296Z,0.75
2023-03-10T16:03:38.931Z,0.65
2023-03-10T16:06:09.579Z,0.50
2023-03-10T16:08:38.950Z,0.70
2023-03-10T16:11:10.033Z,2.15
2023-03-10T16:13:38.120Z,0.90
2023-03-10T16:16:07.811Z,0.70
2023-03-10T16:18:37.475Z,1.15
2023-03-10T16:21:06.085Z,0.60
2023-03-10T16:23:35.023Z,0.82
2023-03-10T16:26:11.922Z,0.70
2023-03-10T16:28:41.435Z,2.50
2023-03-10T16:31:10.600Z,0.60
2023-03-10T16:33:40.796Z,1.42
2023-03-10T16:36:11.898Z,1.48
2023-03-10T16:38:39.963Z,1.10
2023-03-10T16:41:09.388Z,1.27
2023-03-10T16:43:37.908Z,0.73
2023-03-10T16:46:09.003Z,1.08
2023-03-10T16:48:42.069Z,4.78
2023-03-10T16:51:24.315Z,0.40
2023-03-10T16:53:53.105Z,0.77
2023-03-10T16:56:21.621Z,0.75
2023-03-10T16:58:49.690Z,0.50
2023-03-10T17:01:17.814Z,0.60
2023-03-10T17:03:48.943Z,0.88
2023-03-10T17:06:20.161Z,0.60
2023-03-10T17:08:48.240Z,0.60
2023-03-10T17:11:19.658Z,1.35
2023-03-10T17:13:49.640Z,1.35
2023-03-10T17:16:19.594Z,1.52
2023-03-10T17:18:49.218Z,1.98
2023-03-10T17:21:20.218Z,0.70
2023-03-10T17:23:49.278Z,5.32
2023-03-10T17:26:17.876Z,5.53
2023-03-10T17:28:47.302Z,1.55
2023-03-10T17:31:17.140Z,1.10
2023-03-10T17:33:45.779Z,1.13
2023-03-10T17:36:16.393Z,2.45
2023-03-10T17:38:45.403Z,2.13
2023-03-10T17:41:15.039Z,3.88
2023-03-10T17:43:43.593Z,1.50
2023-03-10T17:46:14.690Z,1.98
2023-03-10T17:48:43.148Z,1.35
2023-03-10T17:51:14.006Z,1.80
2023-03-10T17:53:43.685Z,3.10
2023-03-10T17:56:12.187Z,1.65
2023-03-10T17:58:40.276Z,1.48
2023-03-10T18:01:09.649Z,1.38
2023-03-10T18:03:38.120Z,1.63
2023-03-10T18:06:10.577Z,1.50
2023-03-10T18:08:38.626Z,2.63
2023-03-10T18:11:08.945Z,2.40
2023-03-10T18:13:37.500Z,1.95
2023-03-10T18:16:06.236Z,3.20
2023-03-10T18:18:34.394Z,2.92
2023-03-10T18:21:02.446Z,12.52
2023-03-10T18:23:30.491Z,2.97
2023-03-10T18:25:58.934Z,3.80
2023-03-10T18:28:28.897Z,6.43
2023-03-10T18:30:56.952Z,9.40
2023-03-10T18:33:25.149Z,7.03
2023-03-10T18:35:53.500Z,9.20
2023-03-10T18:38:21.975Z,10.73
2023-03-10T18:40:58.188Z,13.63
2023-03-10T18:43:26.473Z,15.02
2023-03-10T18:45:56.064Z,15.32
2023-03-10T18:48:25.648Z,13.68
2023-03-10T18:50:54.094Z,13.45
2023-03-10T18:53:22.780Z,19.20
2023-03-10T18:55:50.816Z,16.00
2023-03-10T18:58:19.021Z,15.57
2023-03-10T19:00:47.272Z,20.15
2023-03-10T19:03:16.896Z,23.40
2023-03-10T19:05:45.216Z,20.60
2023-03-10T19:08:13.676Z,15.50
2023-03-10T19:10:41.915Z,12.52
2023-03-10T19:13:09.967Z,14.30
2023-03-10T19:15:38.764Z,26.33
2023-03-10T19:18:07.426Z,20.13
2023-03-10T19:20:36.957Z,27.58
2023-03-10T19:23:05.003Z,23.58
2023-03-10T19:25:33.057Z,28.63
2023-03-10T19:28:01.103Z,26.33
2023-03-10T19:30:31.528Z,29.80
2023-03-10T19:32:59.573Z,29.75
2023-03-10T19:35:27.945Z,31.25
2023-03-10T19:37:57.571Z,39.95
2023-03-10T19:40:25.666Z,55.60
2023-03-10T19:42:53.750Z,40.00
2023-03-10T19:45:21.840Z,36.30
2023-03-10T19:47:50.612Z,43.15
2023-03-10T19:50:19.207Z,40.05
2023-03-10T19:52:48.671Z,39.95
2023-03-10T19:55:20.183Z,49.03
2023-03-10T19:57:49.269Z,43.08
2023-03-10T20:00:20.654Z,50.30
2023-03-10T20:02:48.847Z,50.63
2023-03-10T20:05:17.550Z,44.83
2023-03-10T20:07:46.967Z,49.72
2023-03-10T20:10:18.786Z,46.22
2023-03-10T20:12:47.843Z,53.88
2023-03-10T20:15:17.318Z,62.90
2023-03-10T20:17:45.449Z,70.25
2023-03-10T20:20:15.280Z,56.38
2023-03-10T20:22:45.367Z,48.75
2023-03-10T20:25:15.601Z,28.25
2023-03-10T20:27:45.501Z,46.25
2023-03-10T20:30:17.118Z,29.83
2023-03-10T20:32:45.767Z,43.80
2023-03-10T20:35:15.029Z,39.38
2023-03-10T20:37:43.459Z,42.55
2023-03-10T20:40:13.960Z,35.72
2023-03-10T20:42:42.191Z,33.53
2023-03-10T20:45:12.418Z,34.58
2023-03-10T20:47:40.637Z,34.58
2023-03-10T20:50:10.168Z,40.30
2023-03-10T20:52:39.886Z,39.05
2023-03-10T20:55:09.461Z,37.95
2023-03-10T20:57:37.500Z,33.42
2023-03-10T21:00:07.691Z,35.25
2023-03-10T21:02:37.113Z,38.03
2023-03-10T21:05:06.327Z,35.47
2023-03-10T21:07:34.391Z,40.22
2023-03-10T21:10:04.144Z,39.10
2023-03-10T21:12:32.448Z,48.53
2023-03-10T21:15:00.647Z,35.35
2023-03-10T21:17:28.765Z,45.05
2023-03-10T21:19:58.174Z,44.83
2023-03-10T21:22:30.299Z,36.95
2023-03-10T21:24:58.382Z,41.55
2023-03-10T21:27:28.364Z,38.67
2023-03-10T21:29:57.290Z,34.88
2023-03-10T21:32:26.856Z,36.92
2023-03-10T21:34:55.065Z,36.92
2023-03-10T21:37:24.502Z,30.48
2023-03-10T21:39:53.883Z,32.40
2023-03-10T21:42:22.255Z,29.23
2023-03-10T21:44:52.423Z,27.60
2023-03-10T21:47:20.710Z,18.92
2023-03-10T21:49:49.191Z,23.40
2023-03-10T21:52:17.480Z,21.40
2023-03-10T21:54:46.923Z,23.88
2023-03-10T21:57:15.013Z,20.48
2023-03-10T21:59:43.087Z,21.75
2023-03-10T22:02:13.095Z,24.48
2023-03-10T22:04:41.244Z,16.50
2023-03-10T22:07:09.912Z,17.75
2023-03-10T22:09:38.759Z,15.85
2023-03-10T22:12:08.724Z,15.23
2023-03-10T22:14:36.952Z,16.67
2023-03-10T22:17:05.059Z,13.60
2023-03-10T22:19:33.112Z,13.02
2023-03-10T22:22:02.463Z,14.23
2023-03-10T22:24:30.491Z,13.25
2023-03-10T22:26:58.518Z,12.95
2023-03-10T22:29:27.954Z,14.02
2023-03-10T22:31:56.290Z,12.20
2023-03-10T22:34:24.504Z,13.50
2023-03-10T22:36:52.646Z,10.75
2023-03-10T22:39:21.404Z,9.65
2023-03-10T22:41:49.472Z,12.98
2023-03-10T22:44:17.602Z,10.07
2023-03-10T22:46:47.831Z,11.68
2023-03-10T22:49:16.226Z,11.52
2023-03-10T22:51:44.307Z,13.75
2023-03-10T22:54:12.329Z,10.35
2023-03-10T22:56:40.392Z,10.30
2023-03-10T22:59:08.405Z,9.80
2023-03-10T23:01:36.752Z,11.68
2023-03-10T23:04:07.014Z,9.77
2023-03-10T23:06:35.838Z,11.40
2023-03-10T23:09:04.944Z,9.98
2023-03-10T23:11:33.050Z,10.05
2023-03-10T23:14:03.752Z,9.02
2023-03-10T23:16:36.172Z,9.98
2023-03-10T23:19:08.479Z,8.48
2023-03-10T23:21:37.166Z,12.48
2023-03-10T23:24:05.674Z,9.70
2023-03-10T23:26:35.145Z,12.40
2023-03-10T23:29:03.701Z,9.57
2023-03-10T23:31:31.918Z,11.00
2023-03-10T23:33:59.982Z,9.70
2023-03-10T23:36:30.949Z,10.27
2023-03-10T23:38:58.967Z,11.05
2023-03-10T23:41:27.029Z,10.77
2023-03-10T23:43:55.135Z,11.93
2023-03-10T23:46:23.878Z,9.80
2023-03-10T23:48:52.368Z,10.32
2023-03-10T23:51:20.442Z,17.40
2023-03-10T23:53:49.989Z,9.60
2023-03-10T23:56:18.004Z,11.38
2023-03-10T23:58:46.169Z,9.02
